University Heights, Iowa
Current Conditions -  °F | °C
As of 1:52 AM on Thursday 18 Dec 2014 (Local Time) from KIOW Reporting Station
Clear Clear  
Wind Chill: -13°   Ceiling: Unl
Heat Index: -9°   Visibility: 10mi
Dew Point: -11°   Wind: 5mph
Humidity: 88%   Direction: 280°W
Pressure: 30.32"   Gusts: NA
Location:  41.5918°N, 91.6264°W
Report Text: KIOW 180752Z AUTO 28004KT 10SM CLR M09/M11 A3032 RMK AO2 SLP279 T10891106
Loading
Personal Weather Stations






























Interactive Weather Map New forecast layout! Learn more

10-Day Weather Forecast

Advertisements
Track Severe Weather on mobile